Time;durP1;ratioP1;P1;durP2;ratioP2;P2;SDS_P1;SDS_P2;PMS_P1;PMS_P2;Temp;Humidity;BMP_temperature;BMP_pressure;BME280_temperature;BME280_humidity;BME280_pressure;Samples;Min_cycle;Max_cycle;Signal;HPM_P1;HPM_P2
2023/03/12 00:01:16;;;;;;;5.10;1.50;;;;;;;-0.75;100.00;100855.56;5012316;28;20612;-45
2023/03/12 00:03:42;;;;;;;7.55;1.48;;;;;;;-0.61;100.00;100858.31;5008371;28;20205;-47
2023/03/12 00:06:07;;;;;;;7.45;1.60;;;;;;;-0.62;100.00;100854.78;5016394;28;20192;-46
2023/03/12 00:08:33;;;;;;;5.00;1.23;;;;;;;-0.60;100.00;100853.94;5011815;28;20192;-47
2023/03/12 00:10:58;;;;;;;10.30;1.65;;;;;;;-0.59;100.00;100869.75;4998231;28;20184;-46
2023/03/12 00:13:24;;;;;;;2.35;1.27;;;;;;;-0.58;100.00;100860.97;5017154;28;20758;-46
2023/03/12 00:15:49;;;;;;;8.18;1.85;;;;;;;-0.66;100.00;100860.94;5013623;28;20184;-46
2023/03/12 00:18:15;;;;;;;6.97;1.75;;;;;;;-0.60;100.00;100865.34;5013254;28;20239;-47
2023/03/12 00:20:40;;;;;;;8.27;2.00;;;;;;;-0.60;100.00;100862.69;5014640;28;20180;-45
2023/03/12 00:23:06;;;;;;;7.63;1.88;;;;;;;-0.60;100.00;100869.72;5016652;28;20284;-45
2023/03/12 00:25:31;;;;;;;7.03;1.38;;;;;;;-0.57;100.00;100877.63;4999725;28;20190;-44
2023/03/12 00:27:57;;;;;;;2.00;0.90;;;;;;;-0.49;100.00;100868.94;5016952;28;20227;-46
2023/03/12 00:30:23;;;;;;;5.80;1.50;;;;;;;-0.64;100.00;100876.69;5003571;28;20182;-45
2023/03/12 00:32:48;;;;;;;7.45;1.30;;;;;;;-0.67;100.00;100874.94;5012473;28;20277;-45
2023/03/12 00:35:14;;;;;;;5.68;1.30;;;;;;;-0.69;100.00;100876.66;5012990;28;20216;-45
2023/03/12 00:37:39;;;;;;;4.53;1.05;;;;;;;-0.70;100.00;100885.44;4994903;28;20184;-47
2023/03/12 00:40:09;;;;;;;10.52;1.50;;;;;;;-0.79;100.00;100884.47;4994853;28;20659;-44
2023/03/12 00:42:34;;;;;;;5.40;1.75;;;;;;;-0.72;100.00;100891.53;5028306;28;20581;-44
2023/03/12 00:45:00;;;;;;;7.30;1.42;;;;;;;-0.75;100.00;100886.25;5000336;28;20180;-45
2023/03/12 00:47:25;;;;;;;6.43;1.80;;;;;;;-0.83;100.00;100902.00;5014640;28;20192;-46
2023/03/12 00:49:51;;;;;;;4.05;1.23;;;;;;;-0.77;100.00;100899.38;5002076;28;20212;-46
2023/03/12 00:52:16;;;;;;;3.78;1.17;;;;;;;-0.90;100.00;100895.75;4994893;28;20212;-45
2023/03/12 00:54:42;;;;;;;6.82;1.70;;;;;;;-0.81;100.00;100891.47;5000713;28;20602;-46
2023/03/12 00:57:07;;;;;;;8.05;1.65;;;;;;;-0.85;100.00;100890.56;5020462;28;20553;-46
2023/03/12 00:59:34;;;;;;;5.82;1.88;;;;;;;-0.85;100.00;100896.69;5025490;28;20214;-45
2023/03/12 01:02:00;;;;;;;5.28;1.13;;;;;;;-0.81;100.00;100896.72;5024766;28;20179;-46
2023/03/12 01:04:26;;;;;;;4.10;1.23;;;;;;;-0.76;100.00;100900.28;5019046;28;20192;-47
2023/03/12 01:06:51;;;;;;;1.85;0.90;;;;;;;-0.89;100.00;100894.03;5019556;28;20231;-46
2023/03/12 01:09:18;;;;;;;4.43;1.52;;;;;;;-0.89;100.00;100889.66;5018363;28;20187;-46
2023/03/12 01:11:43;;;;;;;5.18;1.10;;;;;;;-0.91;100.00;100896.63;5013271;28;20193;-46
2023/03/12 01:14:09;;;;;;;9.75;1.50;;;;;;;-0.94;100.00;100887.81;4998253;28;20231;-46
2023/03/12 01:16:35;;;;;;;4.40;1.50;;;;;;;-0.96;100.00;100886.94;5013075;28;20185;-45
2023/03/12 01:19:02;;;;;;;5.53;1.40;;;;;;;-0.99;100.00;100902.69;5012764;28;20200;-46
2023/03/12 01:21:28;;;;;;;8.77;1.75;;;;;;;-0.98;100.00;100894.81;4994225;28;20196;-46
2023/03/12 01:23:55;;;;;;;10.23;1.42;;;;;;;-0.93;100.00;100897.50;5014342;28;20204;-46
2023/03/12 01:26:21;;;;;;;4.32;1.20;;;;;;;-0.99;100.00;100900.06;5020617;28;20721;-46
2023/03/12 01:28:47;;;;;;;1.40;0.93;;;;;;;-0.95;100.00;100907.13;4998138;28;20220;-44
2023/03/12 01:31:17;;;;;;;4.97;1.35;;;;;;;-1.05;100.00;100908.75;5012070;28;20216;-45
2023/03/12 01:33:46;;;;;;;4.05;1.42;;;;;;;-1.05;100.00;100919.25;4984724;28;20217;-45
2023/03/12 01:36:19;;;;;;;9.15;1.15;;;;;;;-1.08;100.00;100903.47;5014971;28;20667;-45
2023/03/12 01:38:45;;;;;;;7.18;1.60;;;;;;;-1.12;100.00;100913.06;5014212;28;20315;-44
2023/03/12 01:41:11;;;;;;;6.30;1.30;;;;;;;-1.15;100.00;100902.53;5013104;28;20271;-46
2023/03/12 01:43:38;;;;;;;3.80;1.20;;;;;;;-1.14;100.00;100903.41;5001744;28;20758;-46
2023/03/12 01:46:34;;;;;;;4.18;1.40;;;;;;;-1.11;100.00;100904.31;5012318;28;20245;-44
2023/03/12 01:49:03;;;;;;;3.38;1.40;;;;;;;-1.13;100.00;100905.19;5016886;28;20198;-46
2023/03/12 01:51:35;;;;;;;6.70;1.65;;;;;;;-1.10;100.00;100899.94;5001800;28;20216;-47
2023/03/12 01:54:06;;;;;;;5.05;1.25;;;;;;;-1.16;100.00;100905.13;5010986;28;20236;-46
2023/03/12 01:56:35;;;;;;;4.63;1.30;;;;;;;-1.20;100.00;100914.75;5013125;28;20192;-45
2023/03/12 01:59:09;;;;;;;4.88;1.13;;;;;;;-1.28;100.00;100911.16;5011408;28;20224;-46
2023/03/12 02:01:36;;;;;;;2.45;0.98;;;;;;;-1.22;100.00;100907.69;5002271;28;20738;-46
2023/03/12 02:04:02;;;;;;;5.75;1.30;;;;;;;-1.28;100.00;100919.91;5016668;28;20204;-46
2023/03/12 02:06:35;;;;;;;3.22;0.90;;;;;;;-1.23;100.00;100905.94;5012390;28;20276;-45
2023/03/12 02:09:03;;;;;;;4.70;1.00;;;;;;;-1.21;100.00;100901.59;5010423;28;20204;-47
2023/03/12 02:11:30;;;;;;;7.40;1.30;;;;;;;-1.26;100.00;100912.91;5008340;28;20192;-44
2023/03/12 02:13:59;;;;;;;5.82;1.48;;;;;;;-1.30;100.00;100900.59;5017619;28;20235;-46
2023/03/12 02:16:25;;;;;;;4.38;1.17;;;;;;;-1.23;100.00;100916.44;4990138;28;20220;-45
2023/03/12 02:18:54;;;;;;;10.35;1.13;;;;;;;-1.25;100.00;100905.91;5010731;28;21031;-46
2023/03/12 02:21:24;;;;;;;7.90;1.33;;;;;;;-1.27;100.00;100908.53;4997072;28;20196;-46
2023/03/12 02:24:16;;;;;;;9.00;1.42;;;;;;;-1.29;100.00;100905.00;4994669;28;20210;-46
2023/03/12 02:26:41;;;;;;;3.67;1.15;;;;;;;-1.23;100.00;100903.31;5014431;28;20183;-46
2023/03/12 02:29:09;;;;;;;6.72;1.08;;;;;;;-1.28;100.00;100909.41;5011872;28;20200;-48
2023/03/12 02:31:44;;;;;;;3.75;1.17;;;;;;;-1.28;100.00;100905.88;5009398;28;20183;-47
2023/03/12 02:34:09;;;;;;;3.58;1.02;;;;;;;-1.37;100.00;100901.41;5007244;28;20239;-46
2023/03/12 02:36:35;;;;;;;3.28;1.02;;;;;;;-1.31;100.00;100911.13;5008661;28;20216;-46
2023/03/12 02:39:01;;;;;;;4.28;1.25;;;;;;;-1.26;100.00;100909.41;5010222;28;20303;-46
2023/03/12 02:41:35;;;;;;;3.13;0.95;;;;;;;-1.21;100.00;100909.47;5013325;28;20184;-46
2023/03/12 02:44:26;;;;;;;3.78;0.95;;;;;;;-1.25;100.00;100905.91;5014660;28;20753;-47
2023/03/12 02:46:54;;;;;;;4.30;1.20;;;;;;;-1.30;100.00;100899.72;5000107;28;20642;-48
2023/03/12 02:49:23;;;;;;;3.67;1.08;;;;;;;-1.34;100.00;100896.19;5012315;28;20279;-49
2023/03/12 02:51:49;;;;;;;3.08;1.42;;;;;;;-1.45;100.00;100909.19;4997033;28;20226;-44
2023/03/12 02:54:17;;;;;;;4.80;1.13;;;;;;;-1.36;100.00;100904.91;5010802;28;20694;-46
2023/03/12 02:56:42;;;;;;;3.13;0.85;;;;;;;-1.51;100.00;100896.00;4997728;28;20545;-44
2023/03/12 02:59:09;;;;;;;4.22;1.13;;;;;;;-1.41;100.00;100912.75;5016898;28;20173;-48
2023/03/12 03:01:39;;;;;;;4.68;1.20;;;;;;;-1.39;100.00;100904.88;4982772;28;20219;-48
2023/03/12 03:04:08;;;;;;;5.97;1.35;;;;;;;-1.41;100.00;100904.88;5019357;28;20232;-48
2023/03/12 03:06:36;;;;;;;4.18;1.00;;;;;;;-1.34;100.00;100908.44;5012303;28;20239;-46
2023/03/12 03:09:02;;;;;;;6.32;1.20;;;;;;;-1.37;100.00;100900.53;5016148;28;20402;-47
2023/03/12 03:11:28;;;;;;;4.68;1.10;;;;;;;-1.60;100.00;100901.13;4999760;28;20182;-47
2023/03/12 03:13:55;;;;;;;4.95;1.08;;;;;;;-1.51;100.00;100905.59;5013783;28;20216;-47
2023/03/12 03:16:22;;;;;;;1.15;0.88;;;;;;;-1.60;100.00;100902.88;5010473;28;20181;-45
2023/03/12 03:18:48;;;;;;;9.73;1.13;;;;;;;-1.62;100.00;100894.09;5013231;28;20177;-45
2023/03/12 03:21:15;;;;;;;4.05;1.05;;;;;;;-1.57;100.00;100909.06;5010843;28;20794;-46
2023/03/12 03:23:44;;;;;;;5.97;1.58;;;;;;;-1.57;100.00;100895.06;4991324;28;20227;-47
2023/03/12 03:26:09;;;;;;;2.95;1.05;;;;;;;-1.51;100.00;100903.88;5014885;28;20219;-46
2023/03/12 03:28:35;;;;;;;4.38;1.15;;;;;;;-1.60;100.00;100902.88;5012803;28;20658;-45
2023/03/12 03:31:01;;;;;;;4.20;1.00;;;;;;;-1.56;100.00;100907.31;4995793;28;20192;-47
2023/03/12 03:33:31;;;;;;;3.70;0.98;;;;;;;-1.52;100.00;100906.47;4991338;28;20212;-46
2023/03/12 03:35:58;;;;;;;3.50;1.10;;;;;;;-1.42;100.00;100913.63;4994012;28;20332;-46
2023/03/12 03:38:27;;;;;;;3.80;0.93;;;;;;;-1.48;100.00;100913.53;5013533;28;20189;-48
2023/03/12 03:40:54;;;;;;;2.38;0.93;;;;;;;-1.53;100.00;100916.13;4995035;28;20192;-47
2023/03/12 03:43:20;;;;;;;5.30;1.42;;;;;;;-1.55;100.00;100909.06;5009276;28;20196;-47
2023/03/12 03:45:47;;;;;;;1.23;1.00;;;;;;;-1.52;100.00;100909.97;5013212;28;20176;-46
2023/03/12 03:48:13;;;;;;;4.22;1.10;;;;;;;-1.51;100.00;100913.50;5011996;28;20542;-46
2023/03/12 03:50:39;;;;;;;3.78;1.08;;;;;;;-1.60;100.00;100910.75;5021497;28;20245;-46
2023/03/12 03:53:07;;;;;;;2.33;0.90;;;;;;;-1.73;100.00;100913.25;5021341;28;20215;-45
2023/03/12 03:55:37;;;;;;;3.85;0.93;;;;;;;-1.74;100.00;100907.97;5020135;28;20180;-45
2023/03/12 03:58:05;;;;;;;4.10;1.17;;;;;;;-1.69;100.00;100916.78;5016714;28;20188;-45
2023/03/12 04:00:32;;;;;;;6.03;1.15;;;;;;;-1.92;100.00;100911.22;4969345;28;20181;-45
2023/03/12 04:02:57;;;;;;;5.88;1.40;;;;;;;-2.08;100.00;100907.47;5019670;28;20690;-45
2023/03/12 04:05:24;;;;;;;6.53;1.50;;;;;;;-2.00;100.00;100913.72;5001452;28;20172;-45
2023/03/12 04:07:52;;;;;;;4.57;1.20;;;;;;;-1.93;100.00;100906.81;5013324;28;20238;-46
2023/03/12 04:10:22;;;;;;;6.70;1.33;;;;;;;-2.04;100.00;100911.91;5011989;28;20267;-46
2023/03/12 04:12:48;;;;;;;5.95;1.10;;;;;;;-2.11;100.00;100916.19;5011910;28;20213;-47
2023/03/12 04:15:13;;;;;;;5.78;1.30;;;;;;;-2.05;100.00;100911.91;5018179;28;20562;-49
2023/03/12 04:17:39;;;;;;;3.13;1.40;;;;;;;-2.10;100.00;100902.22;5023733;28;20561;-46
2023/03/12 04:20:08;;;;;;;3.63;1.45;;;;;;;-2.03;100.00;100895.31;5015852;28;20287;-48
2023/03/12 04:22:34;;;;;;;6.53;1.20;;;;;;;-2.17;100.00;100905.59;5003563;28;20215;-48
2023/03/12 04:25:00;;;;;;;7.07;1.10;;;;;;;-2.24;100.00;100909.00;5002149;28;20184;-48
2023/03/12 04:27:26;;;;;;;6.90;0.90;;;;;;;-2.20;100.00;100895.06;5014497;28;20184;-46
2023/03/12 04:29:51;;;;;;;5.22;1.00;;;;;;;-2.11;100.00;100896.94;4999986;28;20175;-46
2023/03/12 04:32:17;;;;;;;1.60;1.00;;;;;;;-2.10;100.00;100899.59;5014077;28;20184;-46
2023/03/12 04:34:42;;;;;;;5.85;1.27;;;;;;;-2.21;100.00;100901.16;5015451;28;20183;-46
2023/03/12 04:37:12;;;;;;;3.95;1.23;;;;;;;-2.28;100.00;100891.44;5022481;28;20271;-47
2023/03/12 04:39:39;;;;;;;4.75;1.30;;;;;;;-2.16;100.00;100898.63;5001129;28;20219;-46
2023/03/12 04:42:07;;;;;;;3.50;1.05;;;;;;;-2.33;100.00;100893.13;5016956;28;20211;-47
2023/03/12 04:44:33;;;;;;;4.78;0.90;;;;;;;-2.55;100.00;100905.91;4973315;28;20193;-47
2023/03/12 04:46:59;;;;;;;5.68;1.25;;;;;;;-2.54;100.00;100907.66;5000663;28;20723;-46
2023/03/12 04:49:25;;;;;;;4.82;1.20;;;;;;;-2.41;100.00;100892.09;4994870;28;20180;-46
2023/03/12 04:51:52;;;;;;;4.00;1.10;;;;;;;-2.54;100.00;100905.03;5011692;28;20192;-47
2023/03/12 04:54:20;;;;;;;6.20;1.27;;;;;;;-2.59;100.00;100900.56;5012949;28;20205;-46
2023/03/12 04:56:46;;;;;;;5.43;1.00;;;;;;;-2.73;100.00;100903.84;5010052;28;20187;-44
2023/03/12 04:59:13;;;;;;;2.90;1.27;;;;;;;-2.65;100.00;100897.84;4993498;28;20231;-48
2023/03/12 05:01:40;;;;;;;4.95;1.15;;;;;;;-2.73;100.00;100893.38;4997883;28;20275;-46
2023/03/12 05:04:11;;;;;;;4.38;1.35;;;;;;;-2.77;100.00;100903.78;5018288;28;20579;-48
2023/03/12 05:06:37;;;;;;;2.70;0.93;;;;;;;-2.90;100.00;100894.81;5013916;28;20180;-46
2023/03/12 05:09:03;;;;;;;8.13;1.45;;;;;;;-2.84;100.00;100894.00;5010319;28;20187;-47
2023/03/12 05:11:29;;;;;;;5.65;1.10;;;;;;;-2.83;100.00;100899.28;5010350;28;20184;-47
2023/03/12 05:13:54;;;;;;;3.78;1.20;;;;;;;-2.87;100.00;100904.47;4994837;28;20557;-48
2023/03/12 05:16:21;;;;;;;3.10;1.02;;;;;;;-2.80;100.00;100908.94;5014088;28;20172;-46
2023/03/12 05:18:46;;;;;;;2.05;1.10;;;;;;;-3.04;100.00;100906.78;5010996;28;20187;-49
2023/03/12 05:21:15;;;;;;;6.55;1.52;;;;;;;-3.17;100.00;100906.56;5010492;28;20197;-46
2023/03/12 05:23:42;;;;;;;4.60;1.38;;;;;;;-2.98;100.00;100907.75;5007416;28;20208;-47
2023/03/12 05:26:23;;;;;;;5.15;1.30;;;;;;;-3.11;100.00;100916.25;5002661;28;20709;-46
2023/03/12 05:28:51;;;;;;;6.30;1.50;;;;;;;-3.00;100.00;100909.47;5000163;28;20715;-47
2023/03/12 05:31:19;;;;;;;3.03;1.40;;;;;;;-2.90;100.00;100903.56;5014110;28;20172;-43
2023/03/12 05:33:45;;;;;;;2.60;1.30;;;;;;;-2.90;100.00;100910.53;5012220;28;20259;-42
2023/03/12 05:36:13;;;;;;;7.57;1.73;;;;;;;-2.78;100.00;100905.50;5019529;28;20291;-42
2023/03/12 05:38:39;;;;;;;2.80;1.00;;;;;;;-2.62;100.00;100913.66;4999846;28;20243;-44
2023/03/12 05:41:05;;;;;;;6.82;1.73;;;;;;;-2.65;100.00;100917.06;4998088;28;20544;-43
2023/03/12 05:43:33;;;;;;;2.83;1.45;;;;;;;-2.55;100.00;100908.53;5015950;28;20293;-43
2023/03/12 05:46:02;;;;;;;5.00;1.50;;;;;;;-2.44;100.00;100913.94;4994979;28;20215;-44
2023/03/12 05:48:29;;;;;;;3.50;1.25;;;;;;;-2.35;100.00;100911.44;5013779;28;20181;-41
2023/03/12 05:50:56;;;;;;;5.25;1.95;;;;;;;-2.40;100.00;100907.88;5014116;28;20199;-41
2023/03/12 05:53:22;;;;;;;5.00;1.88;;;;;;;-2.30;100.00;100907.19;5011837;28;20215;-43
2023/03/12 05:55:48;;;;;;;9.93;2.20;;;;;;;-2.20;100.00;100907.31;4996725;28;20188;-41
2023/03/12 05:58:14;;;;;;;6.63;1.90;;;;;;;-2.19;100.00;100907.31;5018198;28;20192;-42
2023/03/12 06:00:41;;;;;;;4.47;1.60;;;;;;;-2.12;100.00;100917.06;5017969;28;20185;-43
2023/03/12 06:03:10;;;;;;;4.80;1.75;;;;;;;-2.06;100.00;100918.88;5013905;28;20212;-44
2023/03/12 06:05:37;;;;;;;5.15;1.90;;;;;;;-2.15;100.00;100914.38;5014713;28;20631;-42
2023/03/12 06:08:04;;;;;;;4.38;2.15;;;;;;;-2.22;100.00;100909.91;4980350;28;20192;-42
2023/03/12 06:10:30;;;;;;;7.72;2.22;;;;;;;-2.22;100.00;100911.66;5011414;28;20180;-42
2023/03/12 06:12:56;;;;;;;6.32;2.63;;;;;;;-2.04;100.00;100911.03;5015905;28;20219;-43
2023/03/12 06:15:21;;;;;;;6.25;2.50;;;;;;;-1.93;100.00;100907.69;5012521;28;20240;-41
2023/03/12 06:17:47;;;;;;;13.02;3.90;;;;;;;-1.92;100.00;100912.09;5013194;28;20196;-43
2023/03/12 06:20:13;;;;;;;4.60;3.15;;;;;;;-1.90;100.00;100914.75;4995222;28;20179;-43
2023/03/12 06:22:38;;;;;;;7.97;4.00;;;;;;;-1.83;100.00;100916.59;5010623;28;20246;-43
2023/03/12 06:25:04;;;;;;;6.00;4.00;;;;;;;-1.74;100.00;100921.97;4996563;28;20208;-43
2023/03/12 06:27:30;;;;;;;7.45;4.55;;;;;;;-1.68;100.00;100911.53;5011566;28;20195;-44
2023/03/12 06:29:56;;;;;;;11.13;4.50;;;;;;;-1.64;100.00;100907.22;5014228;28;20259;-42
2023/03/12 06:32:21;;;;;;;9.45;5.07;;;;;;;-1.54;100.00;100924.84;5013351;28;20188;-42
2023/03/12 06:34:47;;;;;;;12.85;6.40;;;;;;;-1.57;100.00;100906.44;5012017;28;20187;-42
2023/03/12 06:37:12;;;;;;;9.00;6.00;;;;;;;-1.50;100.00;100900.38;5012376;28;20173;-44
2023/03/12 06:39:38;;;;;;;10.98;6.07;;;;;;;-1.45;100.00;100903.06;4995848;28;20184;-43
2023/03/12 06:42:04;;;;;;;11.77;6.60;;;;;;;-1.28;100.00;100905.88;5011963;28;20295;-45
2023/03/12 06:44:30;;;;;;;15.77;6.60;;;;;;;-1.08;100.00;100901.72;5017144;28;20196;-41
2023/03/12 06:46:56;;;;;;;10.57;6.78;;;;;;;-0.95;100.00;100896.59;4992389;28;20656;-42
2023/03/12 06:49:22;;;;;;;11.20;6.53;;;;;;;-1.02;100.00;100893.03;5008300;28;20184;-43
2023/03/12 06:51:48;;;;;;;14.00;7.43;;;;;;;-0.97;100.00;100901.84;5013319;28;20737;-43
2023/03/12 06:54:13;;;;;;;18.13;7.15;;;;;;;-0.81;100.00;100891.47;5012974;28;20359;-43
2023/03/12 06:56:39;;;;;;;13.20;7.03;;;;;;;-0.81;100.00;100899.34;5009940;28;20177;-41
2023/03/12 06:59:05;;;;;;;13.43;7.07;;;;;;;-0.72;100.00;100897.69;5010162;28;20259;-42
2023/03/12 07:01:30;;;;;;;8.73;6.13;;;;;;;-0.71;100.00;100901.22;5012365;28;20184;-45
2023/03/12 07:03:56;;;;;;;13.02;7.35;;;;;;;-0.63;100.00;100886.38;5016987;28;20541;-42
2023/03/12 07:06:22;;;;;;;10.85;6.97;;;;;;;-0.62;100.00;100894.25;5015641;28;20185;-44
2023/03/12 07:08:49;;;;;;;10.70;6.55;;;;;;;-0.59;100.00;100882.91;5012110;28;20291;-43
2023/03/12 07:11:14;;;;;;;9.82;6.70;;;;;;;-0.61;100.00;100884.63;5017205;28;20181;-42
2023/03/12 07:13:41;;;;;;;8.68;6.40;;;;;;;-0.56;100.00;100884.66;5019780;28;20218;-42
2023/03/12 07:16:06;;;;;;;10.15;6.68;;;;;;;-0.51;100.00;100893.47;5018030;28;20185;-42
2023/03/12 07:18:32;;;;;;;10.50;7.10;;;;;;;-0.35;100.00;100886.56;5009798;28;20203;-43
2023/03/12 07:20:58;;;;;;;13.02;7.93;;;;;;;-0.40;100.00;100885.66;5012562;28;20287;-42
2023/03/12 07:23:24;;;;;;;13.10;7.80;;;;;;;-0.62;100.00;100877.59;5010606;28;20518;-46
2023/03/12 07:25:50;;;;;;;14.80;7.78;;;;;;;-0.49;100.00;100875.94;5009330;28;20192;-44
2023/03/12 07:28:16;;;;;;;13.45;7.78;;;;;;;-0.46;100.00;100875.97;5016088;28;20658;-42
2023/03/12 07:30:46;;;;;;;17.90;9.45;;;;;;;-0.42;100.00;100868.13;5009592;28;20579;-43
2023/03/12 07:33:12;;;;;;;14.43;9.65;;;;;;;-0.53;100.00;100858.38;5014239;28;20216;-41
2023/03/12 07:35:38;;;;;;;16.98;9.80;;;;;;;-0.56;100.00;100867.13;5013118;28;20191;-44
2023/03/12 07:38:05;;;;;;;15.55;9.90;;;;;;;-0.52;100.00;100871.56;5016065;28;20176;-44
2023/03/12 07:40:31;;;;;;;14.32;9.63;;;;;;;-0.45;100.00;100870.72;5010919;28;20191;-41
2023/03/12 07:42:56;;;;;;;14.65;10.07;;;;;;;-0.31;100.00;100877.81;5010617;28;20197;-42
2023/03/12 07:45:23;;;;;;;17.10;10.13;;;;;;;-0.43;100.00;100882.13;5011555;28;20181;-42
2023/03/12 07:47:49;;;;;;;17.27;10.30;;;;;;;-0.33;100.00;100872.56;4993574;28;20188;-43
2023/03/12 07:50:16;;;;;;;20.17;10.25;;;;;;;-0.24;100.00;100884.88;5013782;28;20216;-43
2023/03/12 07:52:42;;;;;;;17.63;11.40;;;;;;;-0.21;100.00;100880.53;5013066;28;20274;-44
2023/03/12 07:55:08;;;;;;;18.00;10.82;;;;;;;-0.12;100.00;100882.34;5012655;28;20173;-44
2023/03/12 07:57:35;;;;;;;16.80;11.38;;;;;;;0.05;100.00;100885.09;4994052;28;20181;-45
2023/03/12 08:00:00;;;;;;;23.45;12.00;;;;;;;0.19;100.00;100886.03;5010214;28;20183;-43
2023/03/12 08:02:26;;;;;;;18.38;11.82;;;;;;;0.37;100.00;100884.34;5012818;28;20178;-44
2023/03/12 08:04:51;;;;;;;17.73;12.13;;;;;;;0.23;100.00;100889.56;5013933;28;20156;-42
2023/03/12 08:07:17;;;;;;;20.70;12.10;;;;;;;0.24;100.00;100891.34;5009427;28;20177;-44
2023/03/12 08:09:42;;;;;;;18.77;12.60;;;;;;;0.05;100.00;100887.72;5015556;28;20188;-44
2023/03/12 08:12:08;;;;;;;20.75;13.88;;;;;;;0.02;100.00;100892.09;5012786;28;20176;-42
2023/03/12 08:14:34;;;;;;;20.23;12.07;;;;;;;0.19;100.00;100893.94;5011354;28;20586;-44
2023/03/12 08:17:00;;;;;;;20.00;12.93;;;;;;;0.19;100.00;100891.28;5014487;28;20211;-44
2023/03/12 08:19:27;;;;;;;22.98;14.38;;;;;;;0.23;100.00;100886.94;5006416;28;20187;-45
2023/03/12 08:21:53;;;;;;;17.48;12.38;;;;;;;0.41;100.00;100886.13;5015365;28;20184;-44
2023/03/12 08:24:20;;;;;;;17.70;13.00;;;;;;;0.28;100.00;100879.91;5039274;23;20319;-43
2023/03/12 08:26:46;;;;;;;20.20;11.95;;;;;;;0.17;100.00;100882.50;5038810;28;20164;-45
2023/03/12 08:29:12;;;;;;;17.83;12.55;;;;;;;0.30;100.00;100883.44;5036497;28;20220;-42
2023/03/12 08:31:37;;;;;;;17.63;12.35;;;;;;;0.28;100.00;100890.47;5036147;28;20170;-45
2023/03/12 08:34:03;;;;;;;16.38;12.05;;;;;;;0.25;100.00;100884.31;5045923;28;20226;-44
2023/03/12 08:36:29;;;;;;;15.05;11.43;;;;;;;0.11;100.00;100882.50;5039262;28;20187;-46
2023/03/12 08:38:54;;;;;;;15.15;10.68;;;;;;;0.33;100.00;100894.03;5046453;28;20329;-41
2023/03/12 08:41:20;;;;;;;15.48;11.18;;;;;;;0.49;100.00;100886.19;5048301;28;20179;-43
2023/03/12 08:43:45;;;;;;;13.88;10.60;;;;;;;0.40;100.00;100884.38;5038096;28;20249;-43
2023/03/12 08:46:11;;;;;;;17.65;10.13;;;;;;;0.29;100.00;100878.19;5043441;28;20195;-45
2023/03/12 08:48:37;;;;;;;12.93;9.77;;;;;;;0.59;100.00;100885.31;5039048;28;20274;-40
2023/03/12 08:51:04;;;;;;;11.50;8.63;;;;;;;0.35;100.00;100871.19;5032522;28;20179;-41
2023/03/12 08:53:31;;;;;;;11.18;7.60;;;;;;;0.49;100.00;100865.97;5030696;28;20227;-42
2023/03/12 08:55:57;;;;;;;13.00;8.70;;;;;;;0.65;100.00;100871.28;5042890;28;20218;-40
2023/03/12 08:58:24;;;;;;;10.40;8.45;;;;;;;0.69;100.00;100867.78;5040189;28;20279;-42
2023/03/12 09:00:53;;;;;;;10.00;8.90;;;;;;;0.65;100.00;100861.59;5044480;28;20183;-43
2023/03/12 09:03:20;;;;;;;10.80;8.82;;;;;;;0.60;100.00;100852.81;5041335;28;20205;-41
2023/03/12 09:05:47;;;;;;;10.65;8.70;;;;;;;0.65;100.00;100866.88;5027947;28;20220;-45
2023/03/12 09:08:13;;;;;;;10.82;8.65;;;;;;;0.68;100.00;100866.91;5043818;28;20199;-43
2023/03/12 09:10:38;;;;;;;10.85;8.55;;;;;;;0.52;100.00;100858.06;5040439;28;20207;-45
2023/03/12 09:13:05;;;;;;;12.07;9.27;;;;;;;0.72;100.00;100852.88;5042940;28;20216;-40
2023/03/12 09:15:30;;;;;;;13.55;10.13;;;;;;;0.57;100.00;100840.50;5043042;28;20175;-43
2023/03/12 09:17:56;;;;;;;16.55;11.98;;;;;;;0.31;100.00;100837.78;5037920;28;20278;-42
2023/03/12 09:20:23;;;;;;;17.85;11.35;;;;;;;0.36;100.00;100830.78;5042802;28;20175;-42
2023/03/12 09:22:48;;;;;;;16.75;11.65;;;;;;;0.56;100.00;100838.75;5046282;28;20725;-40
2023/03/12 09:25:14;;;;;;;14.07;10.35;;;;;;;0.47;100.00;100846.63;5041637;28;20192;-42
2023/03/12 09:27:42;;;;;;;17.13;11.13;;;;;;;0.54;100.00;100840.50;5040368;28;20182;-42
2023/03/12 09:30:11;;;;;;;16.05;11.20;;;;;;;0.85;100.00;100830.00;5039489;28;20188;-44
2023/03/12 09:32:36;;;;;;;16.38;12.25;;;;;;;0.93;100.00;100820.34;5041104;28;20211;-41
2023/03/12 09:35:02;;;;;;;17.80;11.40;;;;;;;1.14;100.00;100814.22;5023335;28;20167;-41
2023/03/12 09:37:28;;;;;;;19.02;12.05;;;;;;;1.04;100.00;100804.53;5048734;28;20227;-44
2023/03/12 09:39:53;;;;;;;19.48;12.32;;;;;;;1.06;100.00;100808.06;5041164;28;20619;-43
2023/03/12 09:42:22;;;;;;;18.05;13.25;;;;;;;1.21;100.00;100805.41;5023102;28;20192;-44
2023/03/12 09:44:50;;;;;;;25.27;15.50;;;;;;;0.99;100.00;100812.44;5035966;28;20203;-42
2023/03/12 09:47:22;;;;;;;22.45;14.82;;;;;;;0.99;100.00;100803.66;5038828;28;20251;-45
2023/03/12 09:49:53;;;;;;;25.02;15.88;;;;;;;1.11;100.00;100794.84;5042538;28;20171;-45
2023/03/12 09:52:26;;;;;;;23.77;16.52;;;;;;;1.21;100.00;100794.00;5022221;28;20240;-40
2023/03/12 09:55:13;;;;;;;26.50;15.88;;;;;;;1.15;100.00;100781.66;5042275;28;20262;-44
2023/03/12 09:57:40;;;;;;;24.63;15.77;;;;;;;1.30;100.00;100778.13;5038981;28;20325;-41
2023/03/12 10:00:12;;;;;;;23.73;15.18;;;;;;;1.58;100.00;100788.66;5044197;28;20233;-40
2023/03/12 10:03:11;;;;;;;25.20;15.38;;;;;;;1.58;100.00;100789.53;5039957;28;20203;-42
2023/03/12 10:06:02;;;;;;;21.00;14.02;;;;;;;1.81;100.00;100778.03;5041666;28;20218;-42
2023/03/12 10:08:30;;;;;;;19.38;13.80;;;;;;;1.84;100.00;100781.53;5042783;28;20175;-43
2023/03/12 10:11:23;;;;;;;19.30;13.25;;;;;;;1.62;100.00;100764.88;5039464;28;20255;-42
2023/03/12 10:14:07;;;;;;;20.40;13.25;;;;;;;1.74;100.00;100763.97;5027456;28;20225;-43
2023/03/12 10:17:10;;;;;;;20.45;13.82;;;;;;;1.64;100.00;100763.13;5039735;28;20175;-45
2023/03/12 10:20:15;;;;;;;20.65;14.38;;;;;;;1.89;100.00;100754.22;5040400;28;20175;-40
2023/03/12 10:22:52;;;;;;;21.08;15.13;;;;;;;1.90;100.00;100741.00;5039770;28;20203;-41
2023/03/12 10:25:30;;;;;;;21.02;13.82;;;;;;;2.01;100.00;100725.09;5042472;28;20174;-42
2023/03/12 10:28:12;;;;;;;19.42;13.73;;;;;;;2.35;100.00;100723.16;5039004;28;20175;-42
2023/03/12 10:30:41;;;;;;;22.45;14.73;;;;;;;2.51;100.00;100707.19;5036756;28;20183;-43
2023/03/12 10:33:12;;;;;;;25.23;15.65;;;;;;;2.49;100.00;100712.47;5035345;28;20215;-45
2023/03/12 10:35:39;;;;;;;22.10;14.70;;;;;;;2.76;100.00;100714.06;5039773;28;20183;-41
2023/03/12 10:38:12;;;;;;;20.02;15.50;;;;;;;2.68;100.00;100710.59;5043502;28;20199;-45
2023/03/12 10:40:40;;;;;;;23.88;15.77;;;;;;;2.65;100.00;100703.56;5029582;28;20224;-43
2023/03/12 10:43:06;;;;;;;24.05;14.95;;;;;;;2.76;100.00;100703.47;5041609;28;20608;-41
2023/03/12 10:45:44;;;;;;;25.35;16.25;;;;;;;2.82;100.00;100702.53;5037260;28;20178;-42
2023/03/12 10:48:16;;;;;;;21.40;16.08;;;;;;;2.84;100.00;100688.41;5038858;28;20187;-42
2023/03/12 10:50:42;;;;;;;23.15;16.40;;;;;;;2.89;100.00;100691.88;5004781;28;20303;-45
2023/03/12 10:53:12;;;;;;;22.85;15.23;;;;;;;2.96;100.00;100682.13;5043059;28;20226;-41
2023/03/12 10:55:38;;;;;;;24.42;17.02;;;;;;;2.88;100.00;100684.81;5045602;28;20186;-41
2023/03/12 10:58:03;;;;;;;23.08;15.85;;;;;;;2.85;100.00;100682.22;5039705;28;20227;-41
2023/03/12 11:00:31;;;;;;;24.83;16.42;;;;;;;2.67;100.00;100685.91;5035968;28;20192;-45
2023/03/12 11:03:05;;;;;;;22.13;15.63;;;;;;;2.55;100.00;100679.84;5036640;28;20229;-43
2023/03/12 11:05:52;;;;;;;19.73;15.93;;;;;;;3.01;100.00;100675.00;5039214;28;20174;-45
2023/03/12 11:08:30;;;;;;;23.17;17.08;;;;;;;2.98;100.00;100653.00;5040758;28;20188;-44
2023/03/12 11:10:58;;;;;;;23.83;18.35;;;;;;;2.93;100.00;100668.03;5043835;28;20193;-41
2023/03/12 11:13:26;;;;;;;27.55;17.13;;;;;;;2.82;100.00;100665.47;5038990;28;20352;-43
2023/03/12 11:15:53;;;;;;;24.65;17.20;;;;;;;2.82;100.00;100666.38;5038395;28;20199;-42
2023/03/12 11:18:32;;;;;;;24.48;17.33;;;;;;;2.76;100.00;100669.06;5026138;28;20181;-42